createdAt,value
2019-03-26T00:00:30.915Z,7.57
2019-03-26T00:05:34.429Z,7.51
2019-03-26T00:10:37.932Z,7.69
2019-03-26T00:15:41.446Z,7.80
2019-03-26T00:20:44.948Z,7.90
2019-03-26T00:25:48.460Z,7.99
2019-03-26T00:30:52.083Z,8.05
2019-03-26T00:35:55.599Z,8.10
2019-03-26T00:40:59.099Z,8.09
2019-03-26T00:46:02.610Z,8.15
2019-03-26T00:51:06.122Z,8.30
2019-03-26T00:56:09.625Z,8.39
2019-03-26T01:01:13.154Z,8.42
2019-03-26T01:06:17.872Z,8.38
2019-03-26T01:11:21.443Z,8.42
2019-03-26T01:16:24.957Z,8.48
2019-03-26T01:21:28.466Z,8.34
2019-03-26T01:26:31.966Z,8.30
2019-03-26T01:31:35.482Z,8.37
2019-03-26T01:36:38.974Z,8.51
2019-03-26T01:41:42.495Z,8.43
2019-03-26T01:46:45.995Z,8.48
2019-03-26T01:51:49.506Z,8.43
2019-03-26T01:56:53.022Z,8.40
2019-03-26T02:01:56.511Z,8.38
2019-03-26T02:07:00.022Z,8.36
2019-03-26T02:12:03.722Z,8.35
2019-03-26T02:17:07.234Z,8.33
2019-03-26T02:22:10.759Z,8.36
2019-03-26T02:27:14.270Z,8.35
2019-03-26T02:32:17.777Z,8.36
2019-03-26T02:37:21.275Z,8.28
2019-03-26T02:42:24.801Z,8.32
2019-03-26T02:47:28.295Z,8.25
2019-03-26T02:52:31.843Z,8.27
2019-03-26T02:57:35.349Z,8.25
2019-03-26T03:02:38.888Z,8.16
2019-03-26T03:07:42.401Z,8.27
2019-03-26T03:12:45.903Z,8.26
2019-03-26T03:17:49.418Z,8.28
2019-03-26T03:22:52.972Z,8.28
2019-03-26T03:27:56.665Z,8.29
2019-03-26T03:33:00.243Z,8.21
2019-03-26T03:38:03.764Z,8.26
2019-03-26T03:43:07.537Z,8.18
2019-03-26T03:48:11.320Z,8.25
2019-03-26T03:53:18.421Z,8.23
2019-03-26T03:58:24.826Z,8.27
2019-03-26T04:03:28.580Z,8.29
2019-03-26T04:08:32.248Z,8.20
2019-03-26T04:13:35.936Z,8.31
2019-03-26T04:18:39.437Z,8.28
2019-03-26T04:23:42.934Z,8.28
2019-03-26T04:28:46.443Z,8.33
2019-03-26T04:33:49.961Z,8.34
2019-03-26T04:38:53.479Z,8.32
2019-03-26T04:43:56.989Z,8.36
2019-03-26T04:49:00.548Z,8.32
2019-03-26T04:54:04.133Z,8.35
2019-03-26T04:59:07.638Z,8.35
2019-03-26T05:04:11.152Z,8.35
2019-03-26T05:09:14.662Z,8.31
2019-03-26T05:14:18.173Z,8.26
2019-03-26T05:19:21.675Z,8.23
2019-03-26T05:24:25.177Z,8.24
2019-03-26T05:29:28.703Z,8.18
2019-03-26T05:34:32.209Z,8.09
2019-03-26T05:39:35.721Z,8.14
2019-03-26T05:44:39.225Z,8.21
2019-03-26T05:49:42.749Z,8.29
2019-03-26T05:54:46.260Z,8.42
2019-03-26T05:59:49.766Z,8.36
2019-03-26T06:04:53.287Z,8.45
2019-03-26T06:09:56.790Z,8.51
2019-03-26T06:15:00.357Z,8.54
2019-03-26T06:20:04.928Z,8.58
2019-03-26T06:25:08.466Z,8.52
2019-03-26T06:30:12.422Z,8.70
2019-03-26T06:35:15.931Z,8.82
2019-03-26T06:40:19.437Z,8.80
2019-03-26T06:45:22.951Z,8.85
2019-03-26T06:50:26.466Z,8.89
2019-03-26T06:55:29.970Z,9.06
2019-03-26T07:00:33.922Z,9.21
2019-03-26T07:05:37.413Z,9.29
2019-03-26T07:10:40.917Z,9.47
2019-03-26T07:15:44.439Z,9.48
2019-03-26T07:20:47.950Z,9.47
2019-03-26T07:25:51.482Z,9.56
2019-03-26T07:30:54.983Z,10.01
2019-03-26T07:35:58.518Z,10.28
2019-03-26T07:41:02.072Z,9.94
2019-03-26T07:46:05.585Z,9.42
2019-03-26T07:51:09.092Z,9.34
2019-03-26T07:56:12.606Z,9.68
2019-03-26T08:01:16.105Z,9.42
2019-03-26T08:06:19.613Z,9.78
2019-03-26T08:11:23.132Z,10.15
2019-03-26T08:16:26.645Z,10.40
2019-03-26T08:21:31.275Z,10.54
2019-03-26T08:26:35.697Z,10.81
2019-03-26T08:31:39.852Z,11.42
2019-03-26T08:36:43.374Z,11.99
2019-03-26T08:41:46.954Z,12.21
2019-03-26T08:46:50.483Z,12.44
2019-03-26T08:51:54.015Z,12.52
2019-03-26T08:56:57.646Z,12.60
2019-03-26T09:02:01.182Z,12.17
2019-03-26T09:07:04.682Z,11.77
2019-03-26T09:12:08.199Z,11.48
2019-03-26T09:17:11.709Z,11.78
2019-03-26T09:22:40.446Z,11.96
2019-03-26T09:27:44.018Z,12.58
2019-03-26T09:32:47.612Z,12.64
2019-03-26T09:37:51.222Z,12.90
2019-03-26T09:42:54.804Z,12.68
2019-03-26T09:47:58.419Z,13.03
2019-03-26T09:53:02.158Z,12.88
2019-03-26T09:58:05.767Z,12.18
2019-03-26T10:03:09.372Z,12.05
2019-03-26T10:08:12.963Z,12.12
2019-03-26T10:13:16.552Z,12.14
2019-03-26T10:18:20.139Z,12.09
2019-03-26T10:23:23.725Z,11.91
2019-03-26T10:28:27.313Z,11.63
2019-03-26T10:33:30.893Z,11.57
2019-03-26T10:38:34.480Z,12.16
2019-03-26T10:43:38.060Z,12.64
2019-03-26T10:48:41.637Z,12.55
2019-03-26T10:53:45.237Z,12.47
2019-03-26T10:58:48.846Z,12.52
2019-03-26T11:03:52.437Z,12.60
2019-03-26T11:08:56.048Z,12.72
2019-03-26T11:13:59.626Z,12.50
2019-03-26T11:19:03.210Z,12.57
2019-03-26T11:24:06.797Z,12.39
2019-03-26T11:29:10.378Z,12.45
2019-03-26T11:34:13.991Z,12.43
2019-03-26T11:39:17.597Z,12.23
2019-03-26T11:44:21.177Z,12.05
2019-03-26T11:49:24.769Z,11.99
2019-03-26T11:54:28.396Z,11.93
2019-03-26T11:59:31.992Z,11.87
2019-03-26T12:04:35.578Z,12.00
2019-03-26T12:09:46.040Z,12.16
2019-03-26T12:14:44.715Z,12.13
2019-03-26T12:19:48.312Z,12.24
2019-03-26T12:24:51.982Z,12.14
2019-03-26T12:29:55.735Z,12.14
2019-03-26T12:34:59.327Z,11.93
2019-03-26T12:40:03.488Z,11.74
2019-03-26T12:45:07.482Z,11.55
2019-03-26T12:50:11.451Z,11.70
2019-03-26T12:55:15.043Z,11.79
2019-03-26T13:00:24.186Z,11.82
2019-03-26T13:05:27.789Z,11.94
2019-03-26T13:10:31.365Z,12.13
2019-03-26T13:15:34.945Z,12.39
2019-03-26T13:20:38.542Z,12.57
2019-03-26T13:25:42.359Z,12.61
2019-03-26T13:30:45.963Z,12.95
2019-03-26T13:35:49.560Z,13.00
2019-03-26T13:40:53.225Z,12.98
2019-03-26T13:45:56.805Z,13.19
2019-03-26T13:51:00.387Z,13.28
2019-03-26T13:56:03.989Z,13.59
2019-03-26T14:01:07.586Z,13.11
2019-03-26T14:06:11.169Z,12.92
2019-03-26T14:11:14.758Z,12.53
2019-03-26T14:16:18.444Z,12.43
2019-03-26T14:21:22.054Z,12.48
2019-03-26T14:26:28.431Z,12.66
2019-03-26T14:31:34.839Z,13.00
2019-03-26T14:36:39.673Z,12.92
2019-03-26T14:41:44.723Z,12.99
2019-03-26T14:46:49.923Z,13.08
2019-03-26T14:51:59.873Z,13.05
2019-03-26T14:57:05.462Z,13.02
2019-03-26T15:02:10.850Z,13.14
2019-03-26T15:07:15.775Z,13.18
2019-03-26T15:12:21.548Z,12.91
2019-03-26T15:17:27.954Z,12.71
2019-03-26T15:22:33.095Z,12.77
2019-03-26T15:27:38.223Z,12.89
2019-03-26T15:32:43.114Z,13.00
2019-03-26T15:37:48.270Z,13.18
2019-03-26T15:42:53.433Z,13.04
2019-03-26T15:47:58.496Z,12.70
2019-03-26T15:53:04.594Z,12.49
2019-03-26T15:58:09.944Z,12.45
2019-03-26T16:03:15.067Z,12.06
2019-03-26T16:08:19.465Z,12.23
2019-03-26T16:13:24.796Z,12.08
2019-03-26T16:18:29.717Z,11.97
2019-03-26T16:23:34.238Z,12.00
2019-03-26T16:28:39.530Z,11.79
2019-03-26T16:33:43.198Z,11.74
2019-03-26T16:38:46.793Z,11.79
2019-03-26T16:43:50.397Z,11.83
2019-03-26T16:48:54.041Z,12.05
2019-03-26T16:53:57.648Z,11.95
2019-03-26T16:59:01.248Z,11.93
2019-03-26T17:04:04.842Z,11.82
2019-03-26T17:09:08.574Z,11.09
2019-03-26T17:14:12.174Z,11.93
2019-03-26T17:19:15.820Z,11.91
2019-03-26T17:24:19.486Z,11.89
2019-03-26T17:29:23.088Z,11.76
2019-03-26T17:34:26.659Z,10.04
2019-03-26T17:39:31.617Z,10.04
2019-03-26T17:44:35.454Z,9.91
2019-03-26T17:49:39.058Z,9.90
2019-03-26T17:54:42.677Z,9.91
2019-03-26T17:59:46.400Z,9.98
2019-03-26T18:04:50.387Z,10.09
2019-03-26T18:09:54.839Z,10.22
2019-03-26T18:14:58.451Z,10.34
2019-03-26T18:20:02.086Z,10.43
2019-03-26T18:25:05.690Z,10.46
2019-03-26T18:30:09.906Z,10.51
2019-03-26T18:35:13.478Z,10.48
2019-03-26T18:40:17.088Z,10.37
2019-03-26T18:45:20.652Z,10.32
2019-03-26T18:50:24.242Z,10.32
2019-03-26T18:55:27.845Z,10.32
2019-03-26T19:00:36.683Z,10.28
2019-03-26T19:05:40.272Z,10.22
2019-03-26T19:10:43.889Z,10.10
2019-03-26T19:15:48.503Z,10.02
2019-03-26T19:21:01.922Z,10.03
2019-03-26T19:25:57.809Z,10.05
2019-03-26T19:31:01.386Z,10.03
2019-03-26T19:36:04.976Z,10.03
2019-03-26T19:41:08.558Z,10.01
2019-03-26T19:46:12.135Z,10.03
2019-03-26T19:51:15.717Z,10.06
2019-03-26T19:56:19.319Z,10.07
2019-03-26T20:01:22.961Z,10.11
2019-03-26T20:06:26.548Z,10.12
2019-03-26T20:11:30.136Z,10.12
2019-03-26T20:16:41.627Z,10.10
2019-03-26T20:21:39.216Z,10.10
2019-03-26T20:26:42.798Z,10.07
2019-03-26T20:31:46.412Z,10.09
2019-03-26T20:36:50.020Z,10.11
2019-03-26T20:41:53.601Z,10.15
2019-03-26T20:46:57.191Z,10.14
2019-03-26T20:52:00.800Z,10.13
2019-03-26T20:57:04.392Z,10.09
2019-03-26T21:02:07.996Z,10.07
2019-03-26T21:07:11.680Z,10.08
2019-03-26T21:12:15.368Z,10.06
2019-03-26T21:17:18.959Z,10.07
2019-03-26T21:22:22.533Z,10.03
2019-03-26T21:27:26.143Z,10.06
2019-03-26T21:32:29.752Z,9.92
2019-03-26T21:37:33.341Z,10.02
2019-03-26T21:42:36.975Z,10.00
2019-03-26T21:47:40.698Z,9.98
2019-03-26T21:52:44.303Z,9.95
2019-03-26T21:57:47.891Z,9.97
2019-03-26T22:02:51.458Z,9.92
2019-03-26T22:07:55.047Z,9.94
2019-03-26T22:12:58.624Z,9.95
2019-03-26T22:18:02.216Z,9.90
2019-03-26T22:23:05.971Z,9.95
2019-03-26T22:28:09.811Z,9.91
2019-03-26T22:33:13.434Z,9.91
2019-03-26T22:38:17.009Z,9.89
2019-03-26T22:43:20.600Z,9.89
2019-03-26T22:48:24.206Z,9.90
2019-03-26T22:53:27.878Z,9.82
2019-03-26T22:58:31.474Z,9.80
2019-03-26T23:03:35.120Z,9.79
2019-03-26T23:08:38.713Z,9.85
2019-03-26T23:13:42.297Z,9.83
2019-03-26T23:18:45.875Z,9.88
2019-03-26T23:23:49.470Z,9.84
2019-03-26T23:28:53.107Z,9.83
2019-03-26T23:33:56.676Z,9.73
2019-03-26T23:39:00.257Z,9.66
2019-03-26T23:44:03.841Z,9.53
2019-03-26T23:49:07.526Z,9.43
2019-03-26T23:54:11.127Z,9.39
2019-03-26T23:59:14.690Z,9.17
